This is the latest recevied weather packets stored in our database for station/object EA5HPA-11. If no packets are shown the sender has not sent any weather packets the latest 10 day(s).
| Time | Temp. | Humidity | Pressure | Rain* | Wind** | Luminosity | Snow |
|---|---|---|---|---|---|---|---|
| 1787814790 | 24.44° C | 69% | 1012 hPa | 0 mm | - | - | - |
| 1787814489 | 24.44° C | 68% | 1012 hPa | 0 mm | - | - | - |
| 1787814188 | 24.44° C | 70% | 1012 hPa | 0 mm | - | - | - |
| 1787813887 | 24.44° C | 69% | 1012 hPa | 0 mm | - | - | - |
| 1787813587 | 24.44° C | 69% | 1012 hPa | 0 mm | - | - | - |
| 1787813286 | 23.89° C | 72% | 1012 hPa | 0 mm | - | - | - |
| 1787812985 | 23.33° C | 71% | 1012 hPa | 0 mm | - | - | - |
| 1787812684 | 22.78° C | 74% | 1012 hPa | 0 mm | - | - | - |
| 1787812383 | 22.78° C | 74% | 1012 hPa | 0 mm | - | - | - |
| 1787812082 | 22.78° C | 75% | 1012 hPa | 0 mm | - | - | - |
| 1787811781 | 22.78° C | 76% | 1012 hPa | 0 mm | - | - | - |
| 1787811481 | 22.78° C | 76% | 1012 hPa | 0 mm | - | - | - |
| 1787811180 | 22.78° C | 76% | 1012 hPa | 0 mm | - | - | - |
| 1787810578 | 23.33° C | 69% | 1012 hPa | 0 mm | - | - | - |
| 1787810277 | 23.33° C | 69% | 1012 hPa | 0 mm | - | - | - |
| 1787809976 | 23.33° C | 69% | 1012 hPa | 0 mm | - | - | - |
| 1787809673 | 23.89° C | 69% | 1011 hPa | 0 mm | - | - | - |
| 1787809372 | 23.89° C | 69% | 1011 hPa | 0 mm | - | - | - |
| 1787809071 | 23.89° C | 69% | 1011 hPa | 0 mm | - | - | - |
| 1787808702 | 23.89° C | 69% | 1011 hPa | 0 mm | - | - | - |
| 1787808401 | 23.33° C | 70% | 1011 hPa | 0 mm | - | - | - |
| 1787808101 | 23.33° C | 70% | 1011 hPa | 0 mm | - | - | - |
| 1787807800 | 23.33° C | 70% | 1011 hPa | 0 mm | - | - | - |
| 1787807499 | 23.33° C | 70% | 1011 hPa | 0 mm | - | - | - |
| 1787807198 | 23.33° C | 70% | 1011 hPa | 0 mm | - | - | - |
* Rain latest hour (hover to see other rain measurements)
** Current wind speed in m/s (hover to see current wind gust speed)